sensor_id;sensor_type;location;lat;lon;timestamp;temperature;humidity
70867;HTU21D;58487;53.474;49.470;2023-05-10T00:02:00;7.58;98.63
70867;HTU21D;58487;53.474;49.470;2023-05-10T00:04:26;7.56;112.73
70867;HTU21D;58487;53.474;49.470;2023-05-10T00:06:53;7.58;102.36
70867;HTU21D;58487;53.474;49.470;2023-05-10T00:09:20;7.54;116.38
70867;HTU21D;58487;53.474;49.470;2023-05-10T00:11:46;7.59;102.26
70867;HTU21D;58487;53.474;49.470;2023-05-10T00:14:12;7.59;108.19
70867;HTU21D;58487;53.474;49.470;2023-05-10T00:16:39;7.64;108.34
70867;HTU21D;58487;53.474;49.470;2023-05-10T00:19:05;7.59;111.35
70867;HTU21D;58487;53.474;49.470;2023-05-10T00:21:31;7.62;94.61
70867;HTU21D;58487;53.474;49.470;2023-05-10T00:23:59;7.57;97.74
70867;HTU21D;58487;53.474;49.470;2023-05-10T00:26:25;7.58;95.62
70867;HTU21D;58487;53.474;49.470;2023-05-10T00:28:52;7.61;88.35
70867;HTU21D;58487;53.474;49.470;2023-05-10T00:31:18;7.59;118.99
70867;HTU21D;58487;53.474;49.470;2023-05-10T00:33:44;7.62;93.43
70867;HTU21D;58487;53.474;49.470;2023-05-10T00:36:10;7.52;118.99
70867;HTU21D;58487;53.474;49.470;2023-05-10T00:38:36;7.48;86.56
70867;HTU21D;58487;53.474;49.470;2023-05-10T00:41:02;7.48;84.66
70867;HTU21D;58487;53.474;49.470;2023-05-10T00:43:29;7.52;108.94
70867;HTU21D;58487;53.474;49.470;2023-05-10T00:45:55;7.61;87.04
70867;HTU21D;58487;53.474;49.470;2023-05-10T00:48:21;7.62;89.15
70867;HTU21D;58487;53.474;49.470;2023-05-10T00:50:48;7.60;106.14
70867;HTU21D;58487;53.474;49.470;2023-05-10T00:53:14;7.63;117.55
70867;HTU21D;58487;53.474;49.470;2023-05-10T00:55:40;7.64;85.54
70867;HTU21D;58487;53.474;49.470;2023-05-10T00:58:07;7.60;83.97
70867;HTU21D;58487;53.474;49.470;2023-05-10T01:00:34;7.57;111.80
70867;HTU21D;58487;53.474;49.470;2023-05-10T01:03:01;7.54;92.05
70867;HTU21D;58487;53.474;49.470;2023-05-10T01:05:27;7.60;102.41
70867;HTU21D;58487;53.474;49.470;2023-05-10T01:07:53;7.52;81.68
70867;HTU21D;58487;53.474;49.470;2023-05-10T01:10:19;7.56;71.87
70867;HTU21D;58487;53.474;49.470;2023-05-10T01:12:46;7.52;82.72
70867;HTU21D;58487;53.474;49.470;2023-05-10T01:15:14;7.61;113.90
70867;HTU21D;58487;53.474;49.470;2023-05-10T01:17:42;7.59;116.99
70867;HTU21D;58487;53.474;49.470;2023-05-10T01:20:10;7.65;107.04
70867;HTU21D;58487;53.474;49.470;2023-05-10T01:37:31;7.76;115.71
70867;HTU21D;58487;53.474;49.470;2023-05-10T01:40:16;7.87;118.99
70867;HTU21D;58487;53.474;49.470;2023-05-10T01:42:51;7.88;118.99
70867;HTU21D;58487;53.474;49.470;2023-05-10T01:48:09;7.99;71.97
70867;HTU21D;58487;53.474;49.470;2023-05-10T01:50:39;8.04;107.41
70867;HTU21D;58487;53.474;49.470;2023-05-10T01:53:07;8.14;79.79
70867;HTU21D;58487;53.474;49.470;2023-05-10T01:55:46;8.19;82.52
70867;HTU21D;58487;53.474;49.470;2023-05-10T01:58:17;8.22;90.84
70867;HTU21D;58487;53.474;49.470;2023-05-10T02:00:45;8.23;88.22
70867;HTU21D;58487;53.474;49.470;2023-05-10T02:03:12;8.19;117.96
70867;HTU21D;58487;53.474;49.470;2023-05-10T02:05:41;8.24;85.76
70867;HTU21D;58487;53.474;49.470;2023-05-10T02:08:09;8.18;90.69
70867;HTU21D;58487;53.474;49.470;2023-05-10T02:10:35;8.17;76.02
70867;HTU21D;58487;53.474;49.470;2023-05-10T02:13:02;8.12;89.10
70867;HTU21D;58487;53.474;49.470;2023-05-10T02:15:29;8.12;76.43
70867;HTU21D;58487;53.474;49.470;2023-05-10T02:17:58;8.05;83.61
70867;HTU21D;58487;53.474;49.470;2023-05-10T02:20:26;8.01;111.68
70867;HTU21D;58487;53.474;49.470;2023-05-10T02:22:55;8.01;85.42
70867;HTU21D;58487;53.474;49.470;2023-05-10T02:25:24;8.05;83.85
70867;HTU21D;58487;53.474;49.470;2023-05-10T02:27:53;8.15;85.63
70867;HTU21D;58487;53.474;49.470;2023-05-10T02:30:21;8.18;115.12
70867;HTU21D;58487;53.474;49.470;2023-05-10T02:32:49;8.27;118.99
70867;HTU21D;58487;53.474;49.470;2023-05-10T02:35:16;8.26;118.99
70867;HTU21D;58487;53.474;49.470;2023-05-10T02:37:43;8.28;108.04
70867;HTU21D;58487;53.474;49.470;2023-05-10T02:40:10;8.42;118.99
70867;HTU21D;58487;53.474;49.470;2023-05-10T02:42:38;8.43;93.60
70867;HTU21D;58487;53.474;49.470;2023-05-10T02:45:10;8.44;95.36
70867;HTU21D;58487;53.474;49.470;2023-05-10T02:47:37;8.45;110.15
70867;HTU21D;58487;53.474;49.470;2023-05-10T02:50:04;8.45;94.30
70867;HTU21D;58487;53.474;49.470;2023-05-10T02:52:38;8.55;113.60
70867;HTU21D;58487;53.474;49.470;2023-05-10T02:55:05;8.65;95.11
70867;HTU21D;58487;53.474;49.470;2023-05-10T02:57:38;8.61;113.40
70867;HTU21D;58487;53.474;49.470;2023-05-10T03:00:07;8.66;93.88
70867;HTU21D;58487;53.474;49.470;2023-05-10T03:02:33;8.83;87.38
70867;HTU21D;58487;53.474;49.470;2023-05-10T03:04:59;8.87;92.88
70867;HTU21D;58487;53.474;49.470;2023-05-10T03:07:25;8.90;105.85
70867;HTU21D;58487;53.474;49.470;2023-05-10T03:09:51;8.93;86.82
70867;HTU21D;58487;53.474;49.470;2023-05-10T03:12:31;8.95;88.11
70867;HTU21D;58487;53.474;49.470;2023-05-10T03:15:13;8.97;92.98
70867;HTU21D;58487;53.474;49.470;2023-05-10T03:17:54;9.04;78.53
70867;HTU21D;58487;53.474;49.470;2023-05-10T03:20:25;9.03;91.50
70867;HTU21D;58487;53.474;49.470;2023-05-10T03:22:59;8.93;110.06
70867;HTU21D;58487;53.474;49.470;2023-05-10T03:25:28;8.97;118.99
70867;HTU21D;58487;53.474;49.470;2023-05-10T03:27:56;9.12;96.21
70867;HTU21D;58487;53.474;49.470;2023-05-10T03:30:24;9.03;83.18
70867;HTU21D;58487;53.474;49.470;2023-05-10T03:32:50;9.11;118.99
70867;HTU21D;58487;53.474;49.470;2023-05-10T03:35:17;9.20;87.50
70867;HTU21D;58487;53.474;49.470;2023-05-10T03:37:43;9.24;98.79
70867;HTU21D;58487;53.474;49.470;2023-05-10T03:40:09;9.23;107.91
70867;HTU21D;58487;53.474;49.470;2023-05-10T03:42:36;9.31;113.06
70867;HTU21D;58487;53.474;49.470;2023-05-10T03:45:02;9.40;114.29
70867;HTU21D;58487;53.474;49.470;2023-05-10T03:47:28;9.50;107.59
70867;HTU21D;58487;53.474;49.470;2023-05-10T03:49:55;9.42;110.95
70867;HTU21D;58487;53.474;49.470;2023-05-10T03:52:21;9.59;106.62
70867;HTU21D;58487;53.474;49.470;2023-05-10T03:54:47;9.74;88.09
70867;HTU21D;58487;53.474;49.470;2023-05-10T03:57:14;9.86;86.33
70867;HTU21D;58487;53.474;49.470;2023-05-10T03:59:40;9.90;97.13
70867;HTU21D;58487;53.474;49.470;2023-05-10T04:02:06;9.72;85.63
70867;HTU21D;58487;53.474;49.470;2023-05-10T04:04:32;9.63;95.89
70867;HTU21D;58487;53.474;49.470;2023-05-10T04:06:58;9.76;93.86
70867;HTU21D;58487;53.474;49.470;2023-05-10T04:09:25;9.72;118.99
70867;HTU21D;58487;53.474;49.470;2023-05-10T04:11:51;9.72;116.63
70867;HTU21D;58487;53.474;49.470;2023-05-10T04:14:17;9.68;118.99
70867;HTU21D;58487;53.474;49.470;2023-05-10T04:16:44;9.89;112.78
70867;HTU21D;58487;53.474;49.470;2023-05-10T04:19:11;9.88;118.99
70867;HTU21D;58487;53.474;49.470;2023-05-10T04:21:37;9.92;118.99
70867;HTU21D;58487;53.474;49.470;2023-05-10T04:24:03;10.07;118.99
70867;HTU21D;58487;53.474;49.470;2023-05-10T04:26:29;10.22;108.27
70867;HTU21D;58487;53.474;49.470;2023-05-10T04:28:56;10.37;110.55
70867;HTU21D;58487;53.474;49.470;2023-05-10T04:31:21;10.64;99.03
70867;HTU21D;58487;53.474;49.470;2023-05-10T04:33:48;10.71;108.24
70867;HTU21D;58487;53.474;49.470;2023-05-10T04:36:15;10.59;109.10
70867;HTU21D;58487;53.474;49.470;2023-05-10T04:38:41;10.62;93.57
70867;HTU21D;58487;53.474;49.470;2023-05-10T04:41:09;10.64;114.92
70867;HTU21D;58487;53.474;49.470;2023-05-10T04:43:36;10.71;106.13
70867;HTU21D;58487;53.474;49.470;2023-05-10T04:46:03;10.78;115.00
70867;HTU21D;58487;53.474;49.470;2023-05-10T04:48:29;10.88;107.07
70867;HTU21D;58487;53.474;49.470;2023-05-10T04:50:55;10.89;114.78
70867;HTU21D;58487;53.474;49.470;2023-05-10T04:53:22;10.97;118.99
70867;HTU21D;58487;53.474;49.470;2023-05-10T04:55:48;10.97;117.57
70867;HTU21D;58487;53.474;49.470;2023-05-10T04:58:14;10.87;105.65
70867;HTU21D;58487;53.474;49.470;2023-05-10T05:00:40;10.88;111.39
70867;HTU21D;58487;53.474;49.470;2023-05-10T05:03:07;11.04;115.43
70867;HTU21D;58487;53.474;49.470;2023-05-10T05:05:33;11.12;110.76
70867;HTU21D;58487;53.474;49.470;2023-05-10T05:07:59;11.26;108.42
70867;HTU21D;58487;53.474;49.470;2023-05-10T05:10:26;11.31;114.31
70867;HTU21D;58487;53.474;49.470;2023-05-10T05:12:52;11.31;101.78
70867;HTU21D;58487;53.474;49.470;2023-05-10T05:15:18;11.44;118.99
70867;HTU21D;58487;53.474;49.470;2023-05-10T05:17:44;11.51;106.05
70867;HTU21D;58487;53.474;49.470;2023-05-10T05:20:10;11.49;118.14
70867;HTU21D;58487;53.474;49.470;2023-05-10T05:22:37;11.72;115.74
70867;HTU21D;58487;53.474;49.470;2023-05-10T05:25:04;11.91;107.29
70867;HTU21D;58487;53.474;49.470;2023-05-10T05:27:30;12.00;118.99
70867;HTU21D;58487;53.474;49.470;2023-05-10T05:29:56;11.83;113.69
70867;HTU21D;58487;53.474;49.470;2023-05-10T05:32:24;11.81;99.66
70867;HTU21D;58487;53.474;49.470;2023-05-10T05:34:50;11.79;107.49
70867;HTU21D;58487;53.474;49.470;2023-05-10T05:37:18;11.98;85.09
70867;HTU21D;58487;53.474;49.470;2023-05-10T05:39:45;11.98;103.37
70867;HTU21D;58487;53.474;49.470;2023-05-10T05:42:12;12.22;107.56
70867;HTU21D;58487;53.474;49.470;2023-05-10T05:44:39;12.22;105.21
70867;HTU21D;58487;53.474;49.470;2023-05-10T05:47:05;12.27;115.15
70867;HTU21D;58487;53.474;49.470;2023-05-10T05:49:32;12.38;117.35
70867;HTU21D;58487;53.474;49.470;2023-05-10T05:51:59;12.35;118.98
70867;HTU21D;58487;53.474;49.470;2023-05-10T05:54:26;12.40;113.38
70867;HTU21D;58487;53.474;49.470;2023-05-10T05:57:00;12.43;118.99
70867;HTU21D;58487;53.474;49.470;2023-05-10T05:59:26;12.57;118.99
70867;HTU21D;58487;53.474;49.470;2023-05-10T06:01:52;12.59;118.17
70867;HTU21D;58487;53.474;49.470;2023-05-10T06:04:18;12.53;115.70
70867;HTU21D;58487;53.474;49.470;2023-05-10T06:06:45;12.59;118.99
70867;HTU21D;58487;53.474;49.470;2023-05-10T06:09:11;12.62;118.99
70867;HTU21D;58487;53.474;49.470;2023-05-10T06:11:37;12.72;116.15
70867;HTU21D;58487;53.474;49.470;2023-05-10T06:14:04;12.75;118.99
70867;HTU21D;58487;53.474;49.470;2023-05-10T06:16:33;12.65;118.31
70867;HTU21D;58487;53.474;49.470;2023-05-10T06:18:59;12.63;118.99
70867;HTU21D;58487;53.474;49.470;2023-05-10T06:21:25;12.85;118.99
70867;HTU21D;58487;53.474;49.470;2023-05-10T06:23:52;12.94;118.99
70867;HTU21D;58487;53.474;49.470;2023-05-10T06:26:18;12.93;116.63
70867;HTU21D;58487;53.474;49.470;2023-05-10T06:28:44;12.89;118.99
70867;HTU21D;58487;53.474;49.470;2023-05-10T06:31:10;12.94;118.99
70867;HTU21D;58487;53.474;49.470;2023-05-10T06:33:37;13.07;79.62
70867;HTU21D;58487;53.474;49.470;2023-05-10T06:36:04;12.90;118.99
70867;HTU21D;58487;53.474;49.470;2023-05-10T06:38:30;12.86;105.47
70867;HTU21D;58487;53.474;49.470;2023-05-10T06:40:56;13.07;105.78
70867;HTU21D;58487;53.474;49.470;2023-05-10T06:43:23;13.31;87.42
70867;HTU21D;58487;53.474;49.470;2023-05-10T06:45:50;13.26;96.91
70867;HTU21D;58487;53.474;49.470;2023-05-10T06:48:17;13.39;106.36
70867;HTU21D;58487;53.474;49.470;2023-05-10T06:50:43;13.46;107.28
70867;HTU21D;58487;53.474;49.470;2023-05-10T06:53:10;13.47;82.42
70867;HTU21D;58487;53.474;49.470;2023-05-10T06:55:37;13.64;105.82
70867;HTU21D;58487;53.474;49.470;2023-05-10T06:58:03;13.56;105.87
70867;HTU21D;58487;53.474;49.470;2023-05-10T07:00:30;13.64;106.05
70867;HTU21D;58487;53.474;49.470;2023-05-10T07:02:56;13.69;85.84
70867;HTU21D;58487;53.474;49.470;2023-05-10T07:05:22;13.83;86.88
70867;HTU21D;58487;53.474;49.470;2023-05-10T07:07:48;14.06;108.11
70867;HTU21D;58487;53.474;49.470;2023-05-10T07:10:15;14.08;76.31
70867;HTU21D;58487;53.474;49.470;2023-05-10T07:12:41;13.78;109.79
70867;HTU21D;58487;53.474;49.470;2023-05-10T07:15:08;13.90;116.02
70867;HTU21D;58487;53.474;49.470;2023-05-10T07:17:34;14.19;110.54
70867;HTU21D;58487;53.474;49.470;2023-05-10T07:20:01;14.19;115.36
70867;HTU21D;58487;53.474;49.470;2023-05-10T07:22:27;13.94;114.74
70867;HTU21D;58487;53.474;49.470;2023-05-10T07:24:53;14.10;107.50
70867;HTU21D;58487;53.474;49.470;2023-05-10T07:27:19;14.13;114.77
70867;HTU21D;58487;53.474;49.470;2023-05-10T07:29:45;14.23;111.94
70867;HTU21D;58487;53.474;49.470;2023-05-10T07:32:11;14.26;114.03
70867;HTU21D;58487;53.474;49.470;2023-05-10T07:34:37;14.49;109.99
70867;HTU21D;58487;53.474;49.470;2023-05-10T07:37:03;14.43;86.90
70867;HTU21D;58487;53.474;49.470;2023-05-10T07:39:29;14.37;118.27
70867;HTU21D;58487;53.474;49.470;2023-05-10T07:41:55;14.44;94.81
70867;HTU21D;58487;53.474;49.470;2023-05-10T07:44:22;14.43;118.99
70867;HTU21D;58487;53.474;49.470;2023-05-10T07:46:48;14.66;111.29
70867;HTU21D;58487;53.474;49.470;2023-05-10T07:49:14;14.59;109.69
70867;HTU21D;58487;53.474;49.470;2023-05-10T07:51:41;14.86;117.34
70867;HTU21D;58487;53.474;49.470;2023-05-10T07:54:08;15.07;115.65
70867;HTU21D;58487;53.474;49.470;2023-05-10T07:56:34;15.25;84.79
70867;HTU21D;58487;53.474;49.470;2023-05-10T07:59:02;15.10;98.77
70867;HTU21D;58487;53.474;49.470;2023-05-10T08:01:33;15.24;98.52
70867;HTU21D;58487;53.474;49.470;2023-05-10T08:04:00;15.52;111.65
70867;HTU21D;58487;53.474;49.470;2023-05-10T08:06:26;15.66;106.72
70867;HTU21D;58487;53.474;49.470;2023-05-10T08:08:53;15.34;107.65
70867;HTU21D;58487;53.474;49.470;2023-05-10T08:11:20;15.47;113.83
70867;HTU21D;58487;53.474;49.470;2023-05-10T08:13:47;15.44;100.39
70867;HTU21D;58487;53.474;49.470;2023-05-10T08:16:14;15.40;101.60
70867;HTU21D;58487;53.474;49.470;2023-05-10T08:18:40;15.60;112.88
70867;HTU21D;58487;53.474;49.470;2023-05-10T08:21:06;15.76;112.03
70867;HTU21D;58487;53.474;49.470;2023-05-10T08:23:32;15.73;118.99
70867;HTU21D;58487;53.474;49.470;2023-05-10T08:25:59;15.49;118.99
70867;HTU21D;58487;53.474;49.470;2023-05-10T08:28:25;15.62;118.99
70867;HTU21D;58487;53.474;49.470;2023-05-10T08:30:51;15.60;109.81
70867;HTU21D;58487;53.474;49.470;2023-05-10T08:33:18;15.72;113.16
70867;HTU21D;58487;53.474;49.470;2023-05-10T08:35:44;15.68;102.78
70867;HTU21D;58487;53.474;49.470;2023-05-10T08:38:10;15.88;104.53
70867;HTU21D;58487;53.474;49.470;2023-05-10T08:40:37;15.91;115.31
70867;HTU21D;58487;53.474;49.470;2023-05-10T08:43:08;15.81;111.71
70867;HTU21D;58487;53.474;49.470;2023-05-10T08:45:42;16.07;111.29
70867;HTU21D;58487;53.474;49.470;2023-05-10T08:48:10;15.91;118.99
70867;HTU21D;58487;53.474;49.470;2023-05-10T08:50:37;16.21;118.73
70867;HTU21D;58487;53.474;49.470;2023-05-10T08:53:10;16.32;118.99
70867;HTU21D;58487;53.474;49.470;2023-05-10T08:55:37;16.16;118.99
70867;HTU21D;58487;53.474;49.470;2023-05-10T08:58:05;16.45;118.99
70867;HTU21D;58487;53.474;49.470;2023-05-10T09:00:32;16.65;118.99
70867;HTU21D;58487;53.474;49.470;2023-05-10T09:02:59;16.65;118.99
70867;HTU21D;58487;53.474;49.470;2023-05-10T09:05:25;17.04;118.99
70867;HTU21D;58487;53.474;49.470;2023-05-10T09:07:52;16.82;118.99
70867;HTU21D;58487;53.474;49.470;2023-05-10T09:10:19;16.58;118.99
70867;HTU21D;58487;53.474;49.470;2023-05-10T09:12:45;16.72;118.99
70867;HTU21D;58487;53.474;49.470;2023-05-10T09:15:15;16.87;118.99
70867;HTU21D;58487;53.474;49.470;2023-05-10T09:17:42;17.41;118.99
70867;HTU21D;58487;53.474;49.470;2023-05-10T09:20:10;17.59;118.99
70867;HTU21D;58487;53.474;49.470;2023-05-10T09:22:36;17.77;117.89
70867;HTU21D;58487;53.474;49.470;2023-05-10T09:25:11;18.22;111.71
70867;HTU21D;58487;53.474;49.470;2023-05-10T09:27:39;18.52;118.99
70867;HTU21D;58487;53.474;49.470;2023-05-10T09:30:06;18.41;116.59
70867;HTU21D;58487;53.474;49.470;2023-05-10T09:32:40;18.77;118.99
70867;HTU21D;58487;53.474;49.470;2023-05-10T09:35:14;19.23;104.58
70867;HTU21D;58487;53.474;49.470;2023-05-10T09:37:45;19.43;113.47
70867;HTU21D;58487;53.474;49.470;2023-05-10T09:40:14;18.78;113.66
70867;HTU21D;58487;53.474;49.470;2023-05-10T09:43:02;18.42;110.88
70867;HTU21D;58487;53.474;49.470;2023-05-10T09:45:30;18.68;106.78
70867;HTU21D;58487;53.474;49.470;2023-05-10T09:47:57;18.59;99.29
70867;HTU21D;58487;53.474;49.470;2023-05-10T09:50:23;18.44;102.13
70867;HTU21D;58487;53.474;49.470;2023-05-10T09:52:51;18.56;108.19
70867;HTU21D;58487;53.474;49.470;2023-05-10T09:55:21;18.88;104.68
70867;HTU21D;58487;53.474;49.470;2023-05-10T09:57:48;19.17;106.12
70867;HTU21D;58487;53.474;49.470;2023-05-10T10:00:19;19.54;100.22
70867;HTU21D;58487;53.474;49.470;2023-05-10T10:02:47;19.73;99.35
70867;HTU21D;58487;53.474;49.470;2023-05-10T10:05:13;19.41;113.47
70867;HTU21D;58487;53.474;49.470;2023-05-10T10:07:39;19.90;106.75
70867;HTU21D;58487;53.474;49.470;2023-05-10T10:10:06;20.58;111.12
70867;HTU21D;58487;53.474;49.470;2023-05-10T10:12:38;21.08;107.09
70867;HTU21D;58487;53.474;49.470;2023-05-10T10:15:04;21.00;114.73
70867;HTU21D;58487;53.474;49.470;2023-05-10T10:17:31;20.94;112.15
70867;HTU21D;58487;53.474;49.470;2023-05-10T10:19:59;20.48;108.35
70867;HTU21D;58487;53.474;49.470;2023-05-10T10:22:25;20.02;116.96
70867;HTU21D;58487;53.474;49.470;2023-05-10T10:24:51;19.90;118.99
70867;HTU21D;58487;53.474;49.470;2023-05-10T10:27:28;20.09;104.62
70867;HTU21D;58487;53.474;49.470;2023-05-10T10:35:47;19.74;113.92
70867;HTU21D;58487;53.474;49.470;2023-05-10T10:38:14;20.07;115.05
70867;HTU21D;58487;53.474;49.470;2023-05-10T10:40:40;20.58;111.21
70867;HTU21D;58487;53.474;49.470;2023-05-10T10:43:23;20.47;98.32
70867;HTU21D;58487;53.474;49.470;2023-05-10T10:46:14;20.26;106.72
70867;HTU21D;58487;53.474;49.470;2023-05-10T10:49:10;19.81;107.12
70867;HTU21D;58487;53.474;49.470;2023-05-10T10:51:39;19.73;100.80
70867;HTU21D;58487;53.474;49.470;2023-05-10T10:54:11;20.07;95.13
70867;HTU21D;58487;53.474;49.470;2023-05-10T10:56:37;20.00;95.70
70867;HTU21D;58487;53.474;49.470;2023-05-10T10:59:03;20.03;100.18
70867;HTU21D;58487;53.474;49.470;2023-05-10T11:01:33;20.26;101.46
70867;HTU21D;58487;53.474;49.470;2023-05-10T11:08:57;19.92;100.24
70867;HTU21D;58487;53.474;49.470;2023-05-10T11:11:23;19.97;101.25
70867;HTU21D;58487;53.474;49.470;2023-05-10T11:13:49;20.07;101.08
70867;HTU21D;58487;53.474;49.470;2023-05-10T11:16:24;20.65;97.74
70867;HTU21D;58487;53.474;49.470;2023-05-10T11:21:28;21.85;99.33
70867;HTU21D;58487;53.474;49.470;2023-05-10T11:23:59;21.27;98.71
70867;HTU21D;58487;53.474;49.470;2023-05-10T11:26:30;20.61;98.31
70867;HTU21D;58487;53.474;49.470;2023-05-10T11:28:56;20.15;114.71
70867;HTU21D;58487;53.474;49.470;2023-05-10T11:31:23;19.75;118.99
70867;HTU21D;58487;53.474;49.470;2023-05-10T11:33:53;19.76;118.99
70867;HTU21D;58487;53.474;49.470;2023-05-10T11:36:25;20.11;117.46
70867;HTU21D;58487;53.474;49.470;2023-05-10T11:38:52;20.63;118.99
70867;HTU21D;58487;53.474;49.470;2023-05-10T11:41:19;20.77;107.68
70867;HTU21D;58487;53.474;49.470;2023-05-10T11:43:52;20.95;103.88
70867;HTU21D;58487;53.474;49.470;2023-05-10T11:46:20;21.01;107.24
70867;HTU21D;58487;53.474;49.470;2023-05-10T11:48:49;20.46;106.21
70867;HTU21D;58487;53.474;49.470;2023-05-10T11:51:23;20.31;104.12
70867;HTU21D;58487;53.474;49.470;2023-05-10T11:53:50;20.68;105.63
70867;HTU21D;58487;53.474;49.470;2023-05-10T11:56:16;20.50;103.38
70867;HTU21D;58487;53.474;49.470;2023-05-10T11:58:42;20.62;101.12
70867;HTU21D;58487;53.474;49.470;2023-05-10T12:01:09;20.58;106.81
70867;HTU21D;58487;53.474;49.470;2023-05-10T12:03:36;20.35;108.34
70867;HTU21D;58487;53.474;49.470;2023-05-10T12:06:03;20.21;108.54
70867;HTU21D;58487;53.474;49.470;2023-05-10T12:08:30;20.41;108.65
70867;HTU21D;58487;53.474;49.470;2023-05-10T12:11:08;20.79;105.47
70867;HTU21D;58487;53.474;49.470;2023-05-10T12:13:40;20.69;106.64
70867;HTU21D;58487;53.474;49.470;2023-05-10T12:16:13;20.16;104.39
70867;HTU21D;58487;53.474;49.470;2023-05-10T12:18:40;19.92;103.57
70867;HTU21D;58487;53.474;49.470;2023-05-10T12:21:09;19.66;110.87
70867;HTU21D;58487;53.474;49.470;2023-05-10T12:23:36;19.68;105.35
70867;HTU21D;58487;53.474;49.470;2023-05-10T12:26:03;19.47;106.85
70867;HTU21D;58487;53.474;49.470;2023-05-10T12:28:33;19.57;105.66
70867;HTU21D;58487;53.474;49.470;2023-05-10T12:30:59;19.95;103.41
70867;HTU21D;58487;53.474;49.470;2023-05-10T12:33:25;20.15;102.62
70867;HTU21D;58487;53.474;49.470;2023-05-10T12:35:53;20.34;101.57
70867;HTU21D;58487;53.474;49.470;2023-05-10T12:38:38;20.43;101.38
70867;HTU21D;58487;53.474;49.470;2023-05-10T12:41:06;20.30;95.99
70867;HTU21D;58487;53.474;49.470;2023-05-10T12:43:34;20.63;96.64
70867;HTU21D;58487;53.474;49.470;2023-05-10T12:46:20;20.29;100.75
70867;HTU21D;58487;53.474;49.470;2023-05-10T12:48:46;19.77;104.72
70867;HTU21D;58487;53.474;49.470;2023-05-10T12:51:15;19.60;108.54
70867;HTU21D;58487;53.474;49.470;2023-05-10T12:53:44;19.37;107.22
70867;HTU21D;58487;53.474;49.470;2023-05-10T12:56:14;19.28;106.65
70867;HTU21D;58487;53.474;49.470;2023-05-10T12:58:40;18.93;109.30
70867;HTU21D;58487;53.474;49.470;2023-05-10T13:01:06;18.95;106.56
70867;HTU21D;58487;53.474;49.470;2023-05-10T13:03:32;18.82;116.48
70867;HTU21D;58487;53.474;49.470;2023-05-10T13:05:58;18.55;115.57
70867;HTU21D;58487;53.474;49.470;2023-05-10T13:08:24;18.54;116.94
70867;HTU21D;58487;53.474;49.470;2023-05-10T13:10:50;18.66;114.88
70867;HTU21D;58487;53.474;49.470;2023-05-10T13:13:16;18.61;106.82
70867;HTU21D;58487;53.474;49.470;2023-05-10T13:15:43;18.67;118.99
70867;HTU21D;58487;53.474;49.470;2023-05-10T13:18:09;18.72;110.57
70867;HTU21D;58487;53.474;49.470;2023-05-10T13:20:36;18.83;97.22
70867;HTU21D;58487;53.474;49.470;2023-05-10T13:23:02;18.92;102.63
70867;HTU21D;58487;53.474;49.470;2023-05-10T13:25:28;18.98;101.15
70867;HTU21D;58487;53.474;49.470;2023-05-10T13:27:54;18.98;99.66
70867;HTU21D;58487;53.474;49.470;2023-05-10T13:30:20;19.01;102.93
70867;HTU21D;58487;53.474;49.470;2023-05-10T13:32:46;19.13;98.87
70867;HTU21D;58487;53.474;49.470;2023-05-10T13:35:12;19.56;101.83
70867;HTU21D;58487;53.474;49.470;2023-05-10T13:37:38;19.72;103.83
70867;HTU21D;58487;53.474;49.470;2023-05-10T13:40:05;19.81;102.63
70867;HTU21D;58487;53.474;49.470;2023-05-10T13:42:31;20.03;106.90
70867;HTU21D;58487;53.474;49.470;2023-05-10T13:44:59;20.12;103.54
70867;HTU21D;58487;53.474;49.470;2023-05-10T13:47:26;20.32;102.80
70867;HTU21D;58487;53.474;49.470;2023-05-10T13:49:52;20.39;104.02
70867;HTU21D;58487;53.474;49.470;2023-05-10T13:52:19;20.47;113.10
70867;HTU21D;58487;53.474;49.470;2023-05-10T13:54:44;20.15;106.95
70867;HTU21D;58487;53.474;49.470;2023-05-10T13:57:11;20.93;108.11
70867;HTU21D;58487;53.474;49.470;2023-05-10T13:59:39;21.25;107.33
70867;HTU21D;58487;53.474;49.470;2023-05-10T14:02:06;21.06;105.85
70867;HTU21D;58487;53.474;49.470;2023-05-10T14:04:32;20.39;103.31
70867;HTU21D;58487;53.474;49.470;2023-05-10T14:06:58;20.22;103.43
70867;HTU21D;58487;53.474;49.470;2023-05-10T14:09:24;19.74;108.56
70867;HTU21D;58487;53.474;49.470;2023-05-10T14:11:50;19.47;103.12
70867;HTU21D;58487;53.474;49.470;2023-05-10T14:14:16;19.46;104.68
70867;HTU21D;58487;53.474;49.470;2023-05-10T14:16:43;18.98;105.94
70867;HTU21D;58487;53.474;49.470;2023-05-10T14:19:10;18.76;105.81
70867;HTU21D;58487;53.474;49.470;2023-05-10T14:21:37;18.72;105.75
70867;HTU21D;58487;53.474;49.470;2023-05-10T14:24:03;18.62;105.23
70867;HTU21D;58487;53.474;49.470;2023-05-10T14:26:30;18.56;106.74
70867;HTU21D;58487;53.474;49.470;2023-05-10T14:28:56;18.40;103.40
70867;HTU21D;58487;53.474;49.470;2023-05-10T14:31:22;18.33;107.33
70867;HTU21D;58487;53.474;49.470;2023-05-10T14:33:50;18.38;103.58
70867;HTU21D;58487;53.474;49.470;2023-05-10T14:36:17;18.30;103.68
70867;HTU21D;58487;53.474;49.470;2023-05-10T14:38:43;18.48;105.31
70867;HTU21D;58487;53.474;49.470;2023-05-10T14:41:09;18.48;103.25
70867;HTU21D;58487;53.474;49.470;2023-05-10T14:43:39;18.36;101.78
70867;HTU21D;58487;53.474;49.470;2023-05-10T14:46:11;18.35;107.02
70867;HTU21D;58487;53.474;49.470;2023-05-10T14:48:37;18.11;110.55
70867;HTU21D;58487;53.474;49.470;2023-05-10T14:51:03;18.00;107.40
70867;HTU21D;58487;53.474;49.470;2023-05-10T14:53:29;17.75;108.27
70867;HTU21D;58487;53.474;49.470;2023-05-10T14:55:55;17.65;106.44
70867;HTU21D;58487;53.474;49.470;2023-05-10T14:58:21;17.45;118.99
70867;HTU21D;58487;53.474;49.470;2023-05-10T15:00:47;17.40;118.99
70867;HTU21D;58487;53.474;49.470;2023-05-10T15:03:13;17.24;118.99
70867;HTU21D;58487;53.474;49.470;2023-05-10T15:05:39;17.23;118.99
70867;HTU21D;58487;53.474;49.470;2023-05-10T15:08:05;17.30;118.99
70867;HTU21D;58487;53.474;49.470;2023-05-10T15:10:31;17.28;118.99
70867;HTU21D;58487;53.474;49.470;2023-05-10T15:12:58;17.24;118.99
70867;HTU21D;58487;53.474;49.470;2023-05-10T15:15:25;17.02;118.99
70867;HTU21D;58487;53.474;49.470;2023-05-10T15:17:50;16.87;118.99
70867;HTU21D;58487;53.474;49.470;2023-05-10T15:20:17;16.78;118.99
70867;HTU21D;58487;53.474;49.470;2023-05-10T15:22:43;16.80;118.99
70867;HTU21D;58487;53.474;49.470;2023-05-10T15:25:09;16.76;118.99
70867;HTU21D;58487;53.474;49.470;2023-05-10T15:27:35;16.55;118.99
70867;HTU21D;58487;53.474;49.470;2023-05-10T15:30:01;16.52;118.99